Hovedside
METAR-TAF:

METAR-TAF

Lufthavner :

Renton Municipal Airport

Renton, Washington, USA

breddegrad: 47-29-40N, lengdegrad: 122-12-46W, høyde over havet: 8 m

Gjeldene værobservasjon

Denne rapporten ble laget for 26 minutter siden, klokken 21:53 UTC
Vind 4 kt fra Sørøst
Temperatur 22°C
Luftfuktighet 53%
Trykk 1023 hPa
Sikt: 16.1 km
Skyfri himmel
dis

METAR: KRNT 172153Z 14004KT 10SM HZ CLR 22/12 A3022 RMK AO2 SLP239 T02220117

Tid: 15:19 (22:19 UTC)


TAF: fraværende

Værobservasjoner og værvarsel for over 4000 flyplasser (METAR- og TAF-rapporter).

Tilgjengelige stasjoner er representert av de røde og gule prikkene på kartet.

Hold musepekeren over prikken for å se navnet på stasjonen.

Klikk så for å se værobservasjoner og -varsler.

For å forandre kartet kan du klikke på den grønne knappen med svart kryss for å zoome inn, på den grønne knappen med strek for å zoome ut, eller på de grønne pilene for å se tilstøtende kart.


METAR-TAF: